There are multiple Weather-warnings   Click here for more information


Meteo18 Weather Cam more information Meteo18 Weather Cam


warning for Thunderstorms more information blitzortung!


Rain radar more information rain snow radar


Visit our other weather sites:

Template documentation
and downloads

And another site



Weather Underground History page Text

Daily Summary for April 29, 2017 Units:  English    Metric   Both
« Previous Day
Next Day »
Daily Weekly Monthly Yearly Custom
  High: Low: Average:
Temperature: 62.8 °F 33.4 °F 49.5 °F
Dew Point: 43.7 °F 32.2 °F 37.4 °F
Humidity: 96 % 38 % 67 %
Wind Speed: 10 mph 0 mph 1.9 mph
Wind Gust: 16 mph - -
Wind:- - ESE
Pressure: 30.1 in 29.8 in -
Precipitation: 0 in    
Historical Graphs
 
 
Tabular Data for April 29, 2017
Time Temperature Dew Point Pressure Wind Wind Speed Wind Gust Humidity Rainfall Rate (Hourly)
00:02 41.9 °F 38.8 °F 30.1 in Calm   1 mph 89 % 0 in
00:12 41.9 °F 39.2 °F 30.1 in Calm   1 mph 90 % 0 in
00:17 41.9 °F 39.2 °F 30.1 in Calm   1 mph 90 % 0 in
00:22 42.1 °F 39.4 °F 30.1 in Calm   1 mph 90 % 0 in
00:32 42.1 °F 39 °F 30.1 in Calm     89 % 0 in
00:42 41.9 °F 39.2 °F 30.1 in Calm   1 mph 90 % 0 in
00:52 41.7 °F 39 °F 30.1 in Calm   1 mph 90 % 0 in
00:57 41.7 °F 39 °F 30.1 in Calm     90 % 0 in
01:02 41.5 °F 38.8 °F 30.1 in Calm     90 % 0 in
01:12 41.2 °F 38.8 °F 30.1 in Calm     91 % 0 in
01:17 41.2 °F 38.8 °F 30.1 in Calm     91 % 0 in
01:22 41.2 °F 38.8 °F 30.1 in Calm     91 % 0 in
01:27 40.8 °F 38.5 °F 30.1 in Calm     91 % 0 in
01:37 40.3 °F 37.9 °F 30.1 in Calm   1 mph 91 % 0 in
01:42 39.9 °F 37.6 °F 30.1 in Calm   1 mph 91 % 0 in
01:47 39.7 °F 37.4 °F 30.1 in Calm     91 % 0 in
01:52 39.7 °F 37.6 °F 30.1 in Calm     92 % 0 in
01:57 39.7 °F 37.6 °F 30.1 in Calm     92 % 0 in
02:02 39.9 °F 37.8 °F 30.1 in Calm     92 % 0 in
02:12 39.6 °F 37.4 °F 30.1 in Calm     92 % 0 in
02:17 39.6 °F 37.4 °F 30.1 in Calm     92 % 0 in
02:22 39.6 °F 37.8 °F 30.1 in Calm     93 % 0 in
02:32 39.6 °F 37.8 °F 30.1 in Calm     93 % 0 in
02:37 39.4 °F 37.6 °F 30.1 in Calm     93 % 0 in
02:42 39.4 °F 37.6 °F 30.1 in Calm     93 % 0 in
02:52 39 °F 37.2 °F 30.1 in Calm     93 % 0 in
02:57 38.5 °F 36.3 °F 30.1 in Calm     92 % 0 in
03:02 38.5 °F 36.7 °F 30.1 in WNW 1 mph   93 % 0 in
03:07 38.3 °F 36.5 °F 30.1 in Calm   1 mph 93 % 0 in
03:12 38.5 °F 36.9 °F 30.1 in Calm   1 mph 94 % 0 in
03:17 39 °F 37.4 °F 30.1 in Calm   1 mph 94 % 0 in
03:22 39 °F 37.4 °F 30.1 in Calm   1 mph 94 % 0 in
03:27 38.8 °F 37.2 °F 30.1 in Calm   1 mph 94 % 0 in
03:32 38.5 °F 36.9 °F 30.1 in Calm   1 mph 94 % 0 in
03:42 37.8 °F 36 °F 30.1 in Calm     93 % 0 in
03:52 37.9 °F 36.7 °F 30.1 in Calm     95 % 0 in
03:57 37.8 °F 36.1 °F 30.1 in Calm     94 % 0 in
04:02 37.9 °F 36.7 °F 30.1 in Calm     95 % 0 in
04:12 37.6 °F 36 °F 30.1 in Calm     94 % 0 in
04:17 37.6 °F 36.3 °F 30.1 in North 1 mph 1 mph 95 % 0 in
04:22 37.8 °F 36.5 °F 30.1 in Calm   2 mph 95 % 0 in
04:32 37 °F 35.4 °F 30.1 in Calm   2 mph 94 % 0 in
04:37 37 °F 35.8 °F 30.1 in NW 1 mph 1 mph 95 % 0 in
04:42 37 °F 35.8 °F 30.1 in Calm   1 mph 95 % 0 in
04:47 36.9 °F 35.6 °F 30.1 in Calm   1 mph 95 % 0 in
04:52 36.5 °F 34.9 °F 30.1 in Calm   1 mph 94 % 0 in
04:57 36.1 °F 34.5 °F 30.1 in Calm   1 mph 94 % 0 in
05:02 36.3 °F 35.1 °F 30.1 in Calm     95 % 0 in
05:12 35.4 °F 33.8 °F 30.1 in Calm   1 mph 94 % 0 in
05:17 35.4 °F 34.2 °F 30.1 in WNW 1 mph 1 mph 95 % 0 in
05:22 35.8 °F 34.5 °F 30.1 in Calm   1 mph 95 % 0 in
05:32 35.6 °F 34.3 °F 30.1 in WNW 1 mph 1 mph 95 % 0 in
05:37 35.8 °F 34.5 °F 30.1 in WNW 1 mph 1 mph 95 % 0 in
05:42 35.8 °F 34.5 °F 30.1 in Calm   1 mph 95 % 0 in
05:52 36.1 °F 35.1 °F 30.1 in Calm   1 mph 96 % 0 in
05:57 36 °F 34.7 °F 30.1 in Calm   1 mph 95 % 0 in
06:02 36 °F 34.7 °F 30.1 in Calm   1 mph 95 % 0 in
06:12 35.8 °F 34.7 °F 30.1 in NNE 1 mph 1 mph 96 % 0 in
06:17 34.7 °F 33.1 °F 30.1 in Calm   1 mph 94 % 0 in
06:22 34.2 °F 32.9 °F 30.1 in Calm   1 mph 95 % 0 in
06:32 34.2 °F 32.9 °F 30.1 in Calm   1 mph 95 % 0 in
06:37 33.6 °F 32.4 °F 30.1 in Calm     95 % 0 in
06:42 33.4 °F 32.2 °F 30.1 in Calm     95 % 0 in
06:47 33.4 °F 32.2 °F 30.1 in Calm     95 % 0 in
06:52 33.4 °F 32.4 °F 30.1 in Calm     96 % 0 in
07:02 34 °F 32.9 °F 30.1 in Calm     96 % 0 in
07:07 34 °F 32.9 °F 30.1 in Calm     96 % 0 in
07:12 34 °F 32.9 °F 30.1 in Calm     96 % 0 in
07:17 34 °F 32.7 °F 30.1 in Calm     95 % 0 in
07:22 34.3 °F 33.1 °F 30.1 in Calm     95 % 0 in
07:27 34.2 °F 32.9 °F 30.1 in Calm     95 % 0 in
07:32 34.2 °F 32.9 °F 30.1 in Calm     95 % 0 in
07:42 35.4 °F 34.3 °F 30.1 in Calm     96 % 0 in
07:52 35.8 °F 34.5 °F 30.1 in Calm     95 % 0 in
08:02 36.3 °F 35.1 °F 30.1 in Calm     95 % 0 in
08:12 36.3 °F 35.1 °F 30.1 in NNE 1 mph 1 mph 95 % 0 in
08:22 37.2 °F 36 °F 30.1 in Calm   2 mph 95 % 0 in
08:32 39.2 °F 38.1 °F 30.1 in Calm     96 % 0 in
08:37 40.1 °F 39 °F 30.1 in Calm     96 % 0 in
08:42 41.5 °F 40.5 °F 30.1 in Calm     96 % 0 in
08:47 42.3 °F 41 °F 30.1 in Calm     95 % 0 in
08:52 42.6 °F 41 °F 30.1 in Calm     94 % 0 in
09:02 43.3 °F 41.5 °F 30.1 in Calm     93 % 0 in
09:07 44.4 °F 42.3 °F 30.1 in Calm     92 % 0 in
09:12 44.8 °F 41.4 °F 30.1 in Calm     88 % 0 in
09:17 45.3 °F 41.9 °F 30.1 in Calm     88 % 0 in
09:27 46.2 °F 41.4 °F 30.1 in Calm     83 % 0 in
09:32 46.2 °F 41 °F 30.1 in Calm     82 % 0 in
09:37 46.8 °F 41.2 °F 30.1 in Calm     81 % 0 in
09:42 47.1 °F 41.5 °F 30.1 in Calm   1 mph 81 % 0 in
09:47 47.5 °F 41.5 °F 30.1 in ENE 2 mph 2 mph 80 % 0 in
09:52 47.7 °F 41.7 °F 30.1 in Calm   3 mph 80 % 0 in
10:02 48.7 °F 42.4 °F 30.1 in SE 2 mph 3 mph 79 % 0 in
10:12 49.3 °F 42.1 °F 30.1 in ENE 2 mph 2 mph 76 % 0 in
10:17 49.5 °F 42.3 °F 30.1 in NE 2 mph 2 mph 76 % 0 in
10:22 49.5 °F 41.9 °F 30.1 in ENE 1 mph 4 mph 75 % 0 in
10:27 50.4 °F 42.8 °F 30.1 in East 2 mph 4 mph 75 % 0 in
10:32 50.5 °F 42.3 °F 30.1 in ESE 2 mph 4 mph 73 % 0 in
10:42 51.1 °F 42.4 °F 30.1 in Calm   5 mph 72 % 0 in
10:47 52 °F 42.4 °F 30.1 in SE 3 mph 5 mph 70 % 0 in
10:52 52.3 °F 42.8 °F 30.1 in SSW 2 mph 6 mph 70 % 0 in
11:02 53.4 °F 43.2 °F 30.1 in ESE 2 mph 6 mph 68 % 0 in
11:12 53.2 °F 42.6 °F 30.1 in East 2 mph 8 mph 67 % 0 in
11:17 53.6 °F 43.7 °F 30.1 in Calm   8 mph 69 % 0 in
11:22 54.3 °F 42.8 °F 30.1 in SW 2 mph 7 mph 65 % 0 in
11:32 55.2 °F 42.8 °F 30.1 in SE 4 mph 6 mph 63 % 0 in
11:42 55.9 °F 41.9 °F 30.1 in ESE 3 mph 9 mph 59 % 0 in
11:47 55.8 °F 42.4 °F 30.1 in East 5 mph 9 mph 61 % 0 in
11:52 56.1 °F 42.4 °F 30.1 in SW 2 mph 7 mph 60 % 0 in
11:57 56.8 °F 40.8 °F 30.1 in SE 4 mph 7 mph 55 % 0 in
12:02 56.3 °F 41.2 °F 30.1 in East 1 mph 7 mph 57 % 0 in
12:12 56.1 °F 40.1 °F 30.1 in South 3 mph 9 mph 55 % 0 in
12:17 56.5 °F 41 °F 30.1 in SE 1 mph 9 mph 56 % 0 in
12:22 56.7 °F 39.7 °F 30 in SE 2 mph 9 mph 53 % 0 in
12:32 57 °F 39 °F 30 in SE 4 mph 9 mph 51 % 0 in
12:37 57 °F 38.5 °F 30 in East 3 mph 9 mph 50 % 0 in
12:42 57.7 °F 38.1 °F 30 in SSW 9 mph 9 mph 48 % 0 in
12:47 57.9 °F 40.5 °F 30 in NE 1 mph 8 mph 52 % 0 in
12:52 58.3 °F 41.7 °F 30 in East 5 mph 10 mph 54 % 0 in
13:02 57.9 °F 40.5 °F 30 in East 7 mph 10 mph 52 % 0 in
13:07 57.4 °F 38.8 °F 30 in East 5 mph 10 mph 50 % 0 in
13:12 57.9 °F 38.3 °F 30 in South 5 mph 10 mph 48 % 0 in
13:17 58.3 °F 38.1 °F 30 in SE 2 mph 10 mph 47 % 0 in
13:22 58.5 °F 36 °F 30 in East 2 mph 11 mph 43 % 0 in
13:32 59.2 °F 37.9 °F 30 in SSW 5 mph 8 mph 45 % 0 in
13:37 58.6 °F 38.5 °F 30 in East 4 mph 8 mph 47 % 0 in
13:42 59 °F 37 °F 30 in East 6 mph 9 mph 44 % 0 in
13:52 58.5 °F 36 °F 30 in ENE 2 mph 9 mph 43 % 0 in
14:02 59.5 °F 37 °F 30 in East 5 mph 10 mph 43 % 0 in
14:12 58.8 °F 37.6 °F 30 in NE 3 mph 10 mph 45 % 0 in
14:17 58.5 °F 37.8 °F 30 in East 1 mph 10 mph 46 % 0 in
14:22 58.3 °F 38.7 °F 30 in ENE 2 mph 10 mph 48 % 0 in
14:32 57.9 °F 38.8 °F 30 in ENE 3 mph 11 mph 49 % 0 in
14:42 57.9 °F 39.9 °F 30 in SSE 4 mph 11 mph 51 % 0 in
14:52 59.2 °F 39 °F 30 in ESE 4 mph 11 mph 47 % 0 in
15:02 58.6 °F 39 °F 30 in East 1 mph 7 mph 48 % 0 in
15:12 58.3 °F 38.1 °F 30 in South 3 mph 6 mph 47 % 0 in
15:17 59.2 °F 39 °F 30 in East 5 mph 10 mph 47 % 0 in
15:22 59.2 °F 38.5 °F 30 in East 7 mph 10 mph 46 % 0 in
15:32 59.9 °F 38.5 °F 30 in ESE 3 mph 10 mph 45 % 0 in
15:37 60.6 °F 39.7 °F 30 in SSW 5 mph 10 mph 46 % 0 in
15:42 60.4 °F 39.6 °F 30 in ESE 5 mph 10 mph 46 % 0 in
15:47 61.2 °F 39 °F 30 in ESE 3 mph 11 mph 44 % 0 in
15:52 62.2 °F 38.3 °F 30 in ESE 7 mph 13 mph 41 % 0 in
15:57 61.9 °F 38.5 °F 30 in SE 7 mph 13 mph 42 % 0 in
16:02 61 °F 38.3 °F 30 in ENE 3 mph 13 mph 43 % 0 in
16:07 60.1 °F 38.7 °F 30 in ESE 1 mph 15 mph 45 % 0 in
16:12 60.4 °F 39.6 °F 30 in ESE 2 mph 15 mph 46 % 0 in
16:17 61.3 °F 38.1 °F 29.9 in SSE 2 mph 15 mph 42 % 0 in
16:22 61 °F 37.8 °F 29.9 in ESE 4 mph 11 mph 42 % 0 in
16:27 60.6 °F 38.7 °F 29.9 in East 4 mph 9 mph 44 % 0 in
16:32 61 °F 38.8 °F 29.9 in East 6 mph 9 mph 44 % 0 in
16:42 61.9 °F 38.5 °F 29.9 in ENE 3 mph 9 mph 42 % 0 in
16:47 62.4 °F 37.8 °F 29.9 in SSE 2 mph 11 mph 40 % 0 in
16:52 62.8 °F 38.1 °F 29.9 in SSE 2 mph 11 mph 40 % 0 in
16:57 62.2 °F 38.3 °F 29.9 in SE 8 mph 10 mph 41 % 0 in
17:02 62.1 °F 38.1 °F 29.9 in SSE 4 mph 15 mph 41 % 0 in
17:12 61.9 °F 39.2 °F 29.9 in ESE 2 mph 15 mph 43 % 0 in
17:17 61.9 °F 37.9 °F 29.9 in East 7 mph 12 mph 41 % 0 in
17:22 61.7 °F 37.2 °F 29.9 in SE 5 mph 16 mph 40 % 0 in
17:27 61.9 °F 37.9 °F 29.9 in SW 5 mph 16 mph 41 % 0 in
17:32 62.1 °F 38.1 °F 29.9 in ENE 4 mph 16 mph 41 % 0 in
17:37 62.1 °F 37.4 °F 29.9 in ESE 10 mph 14 mph 40 % 0 in
17:42 61.9 °F 37.2 °F 29.9 in SE 6 mph 14 mph 40 % 0 in
17:52 62.1 °F 38.7 °F 29.9 in ESE 1 mph 13 mph 42 % 0 in
17:57 62.4 °F 38.5 °F 29.9 in East 3 mph 14 mph 41 % 0 in
18:02 62.1 °F 38.1 °F 29.9 in East 4 mph 14 mph 41 % 0 in
18:07 61.7 °F 37.2 °F 29.9 in East 5 mph 13 mph 40 % 0 in
18:12 61.9 °F 37.9 °F 29.9 in SE 3 mph 13 mph 41 % 0 in
18:17 61.9 °F 37.2 °F 29.9 in SSE 3 mph 14 mph 40 % 0 in
18:22 62.2 °F 36.3 °F 29.9 in ESE 8 mph 14 mph 38 % 0 in
18:32 61.9 °F 36.7 °F 29.9 in East 2 mph 11 mph 39 % 0 in
18:42 61.9 °F 36.7 °F 29.9 in SSE 4 mph 12 mph 39 % 0 in
18:47 61.9 °F 36.7 °F 29.9 in SE 3 mph 10 mph 39 % 0 in
18:52 61.9 °F 36 °F 29.9 in ESE 3 mph 10 mph 38 % 0 in
19:02 61.3 °F 36.1 °F 29.9 in SE 9 mph 11 mph 39 % 0 in
19:12 61.3 °F 36.1 °F 29.9 in ESE 3 mph 11 mph 39 % 0 in
19:17 61.2 °F 36 °F 29.9 in SSE 3 mph 9 mph 39 % 0 in
19:22 61.2 °F 36 °F 29.9 in ESE 5 mph 12 mph 39 % 0 in
19:27 61 °F 35.8 °F 29.9 in East 4 mph 12 mph 39 % 0 in
19:32 60.6 °F 34.9 °F 29.9 in South 7 mph 12 mph 38 % 0 in
19:42 60.3 °F 35.2 °F 29.9 in ESE 5 mph 12 mph 39 % 0 in
19:47 60.1 °F 35.6 °F 29.9 in SE 3 mph 12 mph 40 % 0 in
19:52 59.7 °F 35.4 °F 29.9 in SE 1 mph 12 mph 40 % 0 in
19:57 59.5 °F 35.8 °F 29.9 in ESE 4 mph 10 mph 41 % 0 in
20:02 59.2 °F 36.1 °F 29.9 in ENE 2 mph 9 mph 42 % 0 in
20:12 58.5 °F 36 °F 29.9 in ESE 2 mph 8 mph 43 % 0 in
20:17 58.3 °F 36.5 °F 29.9 in SE 1 mph 7 mph 44 % 0 in
20:27 57.6 °F 35.8 °F 29.9 in SE 3 mph 5 mph 44 % 0 in
20:32 57.6 °F 35.2 °F 29.9 in ESE 2 mph 4 mph 43 % 0 in
20:42 56.7 °F 35.6 °F 29.9 in East 4 mph 6 mph 45 % 0 in
20:52 55.8 °F 35.2 °F 29.9 in East 3 mph 6 mph 46 % 0 in
20:57 55.6 °F 35.1 °F 29.9 in ENE 2 mph 5 mph 46 % 0 in
21:02 55.2 °F 35.4 °F 29.9 in East 4 mph 6 mph 47 % 0 in
21:12 54.7 °F 35.4 °F 29.9 in East 3 mph 6 mph 48 % 0 in
21:17 54.7 °F 35.4 °F 29.9 in East 3 mph 6 mph 48 % 0 in
21:22 54.5 °F 35.2 °F 29.9 in East 2 mph 6 mph 48 % 0 in
21:32 54.3 °F 34.5 °F 29.9 in ESE 1 mph 6 mph 47 % 0 in
21:42 54.1 °F 34.9 °F 29.9 in East 2 mph 5 mph 48 % 0 in
21:47 54.1 °F 34.9 °F 29.9 in East 2 mph 5 mph 48 % 0 in
21:52 54 °F 34.7 °F 29.9 in East 2 mph 5 mph 48 % 0 in
21:57 54 °F 34.7 °F 29.9 in ENE 2 mph 5 mph 48 % 0 in
22:02 53.8 °F 35.1 °F 29.9 in ENE 2 mph 6 mph 49 % 0 in
22:07 53.2 °F 35.1 °F 29.9 in ENE 2 mph 6 mph 50 % 0 in
22:12 53.2 °F 35.1 °F 29.9 in ENE 2 mph 6 mph 50 % 0 in
22:17 53.2 °F 35.1 °F 29.9 in ENE 3 mph 6 mph 50 % 0 in
22:22 53.1 °F 34.9 °F 29.9 in ENE 2 mph 5 mph 50 % 0 in
22:27 52.5 °F 34.9 °F 29.9 in ENE 2 mph 6 mph 51 % 0 in
22:32 52.3 °F 35.2 °F 29.9 in ENE 2 mph 6 mph 52 % 0 in
22:42 51.8 °F 35.2 °F 29.9 in ENE 2 mph 6 mph 53 % 0 in
22:47 51.3 °F 35.2 °F 29.9 in ENE 2 mph 6 mph 54 % 0 in
22:52 50.9 °F 35.2 °F 29.9 in NE 3 mph 6 mph 55 % 0 in
23:02 50.7 °F 35.1 °F 29.9 in NE 3 mph 5 mph 55 % 0 in
23:07 50.5 °F 35.4 °F 29.9 in NE 4 mph 4 mph 56 % 0 in
23:12 50.2 °F 35.6 °F 29.9 in NE 3 mph 4 mph 57 % 0 in
23:17 49.8 °F 35.6 °F 29.9 in NE 3 mph 5 mph 58 % 0 in
23:22 49.5 °F 35.2 °F 29.8 in NE 3 mph 5 mph 58 % 0 in
23:32 49.5 °F 35.8 °F 29.8 in NE 3 mph 5 mph 59 % 0 in
23:37 49.5 °F 35.8 °F 29.8 in NE 2 mph 5 mph 59 % 0 in
23:42 49.3 °F 35.6 °F 29.8 in NE 2 mph 5 mph 59 % 0 in
23:47 49.1 °F 35.8 °F 29.8 in NE 1 mph 4 mph 60 % 0 in
23:52 48.9 °F 35.6 °F 29.8 in NE 2 mph 4 mph 60 % 0 in
23:57 48.7 °F 35.4 °F 29.8 in NE 2 mph 4 mph 60 % 0 in
Meteo18
Compliments of Weather Underground - 4 mb

Script developed by  Jim McMurry - jmcmurry@mwt.net Adapted for the template by  Wim van der Kuil - Leuven-Template.eu

You find our weather info also at:

European Weather Network

Weather Underground

Equipment we use:

Weather-station
Davis Vue

Weather-program
Meteohub

Weather-server
Raspberry PI 2 B+

Provider
1 and 1

Davis Vue

Meteohub

Raspberry PI 2 B+

1 and 1